sensor_id;sensor_type;location;lat;lon;timestamp;temperature;humidity
40758;DHT22;26462;47.384;19.218;2023-05-19T00:00:39;12.80;99.90
40758;DHT22;26462;47.384;19.218;2023-05-19T00:03:06;12.70;99.90
40758;DHT22;26462;47.384;19.218;2023-05-19T00:05:53;12.90;99.90
40758;DHT22;26462;47.384;19.218;2023-05-19T00:08:22;12.60;99.90
40758;DHT22;26462;47.384;19.218;2023-05-19T00:10:50;12.80;99.90
40758;DHT22;26462;47.384;19.218;2023-05-19T00:13:21;12.80;99.90
40758;DHT22;26462;47.384;19.218;2023-05-19T00:15:49;12.80;99.90
40758;DHT22;26462;47.384;19.218;2023-05-19T00:18:17;12.80;99.90
40758;DHT22;26462;47.384;19.218;2023-05-19T00:20:44;12.70;99.90
40758;DHT22;26462;47.384;19.218;2023-05-19T00:23:12;12.80;99.90
40758;DHT22;26462;47.384;19.218;2023-05-19T00:25:39;12.80;99.90
40758;DHT22;26462;47.384;19.218;2023-05-19T00:28:06;12.60;99.90
40758;DHT22;26462;47.384;19.218;2023-05-19T00:30:36;12.80;99.90
40758;DHT22;26462;47.384;19.218;2023-05-19T00:33:05;12.90;99.90
40758;DHT22;26462;47.384;19.218;2023-05-19T00:35:34;13.00;99.90
40758;DHT22;26462;47.384;19.218;2023-05-19T00:38:02;12.10;99.90
40758;DHT22;26462;47.384;19.218;2023-05-19T00:40:29;12.70;99.90
40758;DHT22;26462;47.384;19.218;2023-05-19T00:43:00;12.70;99.90
40758;DHT22;26462;47.384;19.218;2023-05-19T00:45:35;12.70;99.90
40758;DHT22;26462;47.384;19.218;2023-05-19T00:48:03;12.80;99.90
40758;DHT22;26462;47.384;19.218;2023-05-19T00:50:32;12.70;99.90
40758;DHT22;26462;47.384;19.218;2023-05-19T00:52:59;12.60;99.90
40758;DHT22;26462;47.384;19.218;2023-05-19T00:55:27;12.70;99.90
40758;DHT22;26462;47.384;19.218;2023-05-19T00:57:55;12.70;99.90
40758;DHT22;26462;47.384;19.218;2023-05-19T01:00:23;12.60;99.90
40758;DHT22;26462;47.384;19.218;2023-05-19T01:02:50;14.20;99.90
40758;DHT22;26462;47.384;19.218;2023-05-19T01:05:18;12.60;99.90
40758;DHT22;26462;47.384;19.218;2023-05-19T01:07:49;12.60;99.90
40758;DHT22;26462;47.384;19.218;2023-05-19T01:10:19;12.50;99.90
40758;DHT22;26462;47.384;19.218;2023-05-19T01:12:47;12.50;99.90
40758;DHT22;26462;47.384;19.218;2023-05-19T01:15:15;12.50;99.90
40758;DHT22;26462;47.384;19.218;2023-05-19T01:18:03;12.50;99.90
40758;DHT22;26462;47.384;19.218;2023-05-19T01:20:38;12.50;99.90
40758;DHT22;26462;47.384;19.218;2023-05-19T01:26:01;12.50;99.90
40758;DHT22;26462;47.384;19.218;2023-05-19T01:28:35;12.60;99.90
40758;DHT22;26462;47.384;19.218;2023-05-19T01:31:06;12.50;99.90
40758;DHT22;26462;47.384;19.218;2023-05-19T01:33:38;12.00;99.90
40758;DHT22;26462;47.384;19.218;2023-05-19T01:36:06;12.50;99.90
40758;DHT22;26462;47.384;19.218;2023-05-19T01:38:34;12.60;99.90
40758;DHT22;26462;47.384;19.218;2023-05-19T01:41:04;12.30;99.90
40758;DHT22;26462;47.384;19.218;2023-05-19T01:43:33;12.50;99.90
40758;DHT22;26462;47.384;19.218;2023-05-19T01:46:01;12.50;99.90
40758;DHT22;26462;47.384;19.218;2023-05-19T01:48:29;12.50;99.90
40758;DHT22;26462;47.384;19.218;2023-05-19T01:50:59;12.50;99.90
40758;DHT22;26462;47.384;19.218;2023-05-19T01:53:26;13.70;99.90
40758;DHT22;26462;47.384;19.218;2023-05-19T01:55:54;12.40;99.90
40758;DHT22;26462;47.384;19.218;2023-05-19T02:00:53;12.00;99.90
40758;DHT22;26462;47.384;19.218;2023-05-19T02:06:05;11.90;99.90
40758;DHT22;26462;47.384;19.218;2023-05-19T02:08:39;11.20;99.90
40758;DHT22;26462;47.384;19.218;2023-05-19T02:11:12;12.40;99.90
40758;DHT22;26462;47.384;19.218;2023-05-19T02:13:42;12.40;99.90
40758;DHT22;26462;47.384;19.218;2023-05-19T02:16:10;12.40;99.90
40758;DHT22;26462;47.384;19.218;2023-05-19T02:18:39;12.40;99.90
40758;DHT22;26462;47.384;19.218;2023-05-19T02:21:11;12.40;99.90
40758;DHT22;26462;47.384;19.218;2023-05-19T02:23:39;12.40;99.90
40758;DHT22;26462;47.384;19.218;2023-05-19T02:26:07;12.60;99.90
40758;DHT22;26462;47.384;19.218;2023-05-19T02:28:36;12.40;99.90
40758;DHT22;26462;47.384;19.218;2023-05-19T02:31:04;12.40;99.90
40758;DHT22;26462;47.384;19.218;2023-05-19T02:33:34;12.10;99.90
40758;DHT22;26462;47.384;19.218;2023-05-19T02:36:02;12.40;99.90
40758;DHT22;26462;47.384;19.218;2023-05-19T02:38:30;12.30;99.90
40758;DHT22;26462;47.384;19.218;2023-05-19T02:40:58;12.20;99.90
40758;DHT22;26462;47.384;19.218;2023-05-19T02:43:26;12.30;99.90
40758;DHT22;26462;47.384;19.218;2023-05-19T02:45:53;12.40;99.90
40758;DHT22;26462;47.384;19.218;2023-05-19T02:48:21;12.20;99.90
40758;DHT22;26462;47.384;19.218;2023-05-19T02:50:48;12.30;99.90
40758;DHT22;26462;47.384;19.218;2023-05-19T02:53:15;12.00;99.90
40758;DHT22;26462;47.384;19.218;2023-05-19T02:55:43;12.00;99.90
40758;DHT22;26462;47.384;19.218;2023-05-19T02:58:17;12.30;99.90
40758;DHT22;26462;47.384;19.218;2023-05-19T03:00:46;12.40;99.90
40758;DHT22;26462;47.384;19.218;2023-05-19T03:03:13;11.10;99.90
40758;DHT22;26462;47.384;19.218;2023-05-19T03:05:41;12.20;99.90
40758;DHT22;26462;47.384;19.218;2023-05-19T03:08:09;12.40;99.90
40758;DHT22;26462;47.384;19.218;2023-05-19T03:10:36;11.80;99.90
40758;DHT22;26462;47.384;19.218;2023-05-19T03:13:04;12.30;99.90
40758;DHT22;26462;47.384;19.218;2023-05-19T03:15:31;11.90;99.90
40758;DHT22;26462;47.384;19.218;2023-05-19T03:18:01;12.30;99.90
40758;DHT22;26462;47.384;19.218;2023-05-19T03:20:28;12.20;99.90
40758;DHT22;26462;47.384;19.218;2023-05-19T03:22:56;12.10;99.90
40758;DHT22;26462;47.384;19.218;2023-05-19T03:25:24;12.20;99.90
40758;DHT22;26462;47.384;19.218;2023-05-19T03:27:52;12.30;99.90
40758;DHT22;26462;47.384;19.218;2023-05-19T03:30:19;12.30;99.90
40758;DHT22;26462;47.384;19.218;2023-05-19T03:33:07;12.30;99.90
40758;DHT22;26462;47.384;19.218;2023-05-19T03:35:34;12.40;99.90
40758;DHT22;26462;47.384;19.218;2023-05-19T03:38:02;12.20;99.90
40758;DHT22;26462;47.384;19.218;2023-05-19T03:40:43;12.10;99.90
40758;DHT22;26462;47.384;19.218;2023-05-19T03:43:11;12.30;99.90
40758;DHT22;26462;47.384;19.218;2023-05-19T03:45:45;12.30;99.90
40758;DHT22;26462;47.384;19.218;2023-05-19T03:48:31;12.30;99.90
40758;DHT22;26462;47.384;19.218;2023-05-19T03:51:27;12.40;99.90
40758;DHT22;26462;47.384;19.218;2023-05-19T03:54:06;12.30;99.90
40758;DHT22;26462;47.384;19.218;2023-05-19T03:56:36;12.30;99.90
40758;DHT22;26462;47.384;19.218;2023-05-19T03:59:06;12.40;99.90
40758;DHT22;26462;47.384;19.218;2023-05-19T04:01:35;12.40;99.90
40758;DHT22;26462;47.384;19.218;2023-05-19T04:04:02;12.30;99.90
40758;DHT22;26462;47.384;19.218;2023-05-19T04:06:30;12.40;99.90
40758;DHT22;26462;47.384;19.218;2023-05-19T04:08:57;12.50;99.90
40758;DHT22;26462;47.384;19.218;2023-05-19T04:11:25;12.80;99.90
40758;DHT22;26462;47.384;19.218;2023-05-19T04:13:56;12.50;99.90
40758;DHT22;26462;47.384;19.218;2023-05-19T04:16:28;12.50;99.90
40758;DHT22;26462;47.384;19.218;2023-05-19T04:18:57;12.60;99.90
40758;DHT22;26462;47.384;19.218;2023-05-19T04:21:24;12.60;99.90
40758;DHT22;26462;47.384;19.218;2023-05-19T04:23:53;12.60;99.90
40758;DHT22;26462;47.384;19.218;2023-05-19T04:26:21;12.70;99.90
40758;DHT22;26462;47.384;19.218;2023-05-19T04:28:51;12.80;99.90
40758;DHT22;26462;47.384;19.218;2023-05-19T04:31:22;11.60;99.90
40758;DHT22;26462;47.384;19.218;2023-05-19T04:33:50;12.60;99.90
40758;DHT22;26462;47.384;19.218;2023-05-19T04:36:20;12.60;99.90
40758;DHT22;26462;47.384;19.218;2023-05-19T04:38:54;12.20;99.90
40758;DHT22;26462;47.384;19.218;2023-05-19T04:41:31;12.90;99.90
40758;DHT22;26462;47.384;19.218;2023-05-19T04:44:02;12.90;99.90
40758;DHT22;26462;47.384;19.218;2023-05-19T04:46:29;12.90;99.90
40758;DHT22;26462;47.384;19.218;2023-05-19T04:48:57;12.90;99.90
40758;DHT22;26462;47.384;19.218;2023-05-19T04:51:27;12.70;99.90
40758;DHT22;26462;47.384;19.218;2023-05-19T04:53:59;12.90;99.90
40758;DHT22;26462;47.384;19.218;2023-05-19T04:56:29;13.00;99.90
40758;DHT22;26462;47.384;19.218;2023-05-19T04:58:57;12.50;99.90
40758;DHT22;26462;47.384;19.218;2023-05-19T05:01:26;13.10;99.90
40758;DHT22;26462;47.384;19.218;2023-05-19T05:03:54;13.10;99.90
40758;DHT22;26462;47.384;19.218;2023-05-19T05:06:21;13.10;99.90
40758;DHT22;26462;47.384;19.218;2023-05-19T05:08:49;13.20;99.90
40758;DHT22;26462;47.384;19.218;2023-05-19T05:11:17;13.00;99.90
40758;DHT22;26462;47.384;19.218;2023-05-19T05:13:45;13.20;99.90
40758;DHT22;26462;47.384;19.218;2023-05-19T05:16:13;13.20;99.90
40758;DHT22;26462;47.384;19.218;2023-05-19T05:18:41;13.30;99.90
40758;DHT22;26462;47.384;19.218;2023-05-19T05:21:11;13.30;99.90
40758;DHT22;26462;47.384;19.218;2023-05-19T05:23:39;13.40;99.90
40758;DHT22;26462;47.384;19.218;2023-05-19T05:26:09;13.40;99.90
40758;DHT22;26462;47.384;19.218;2023-05-19T05:28:40;13.50;99.90
40758;DHT22;26462;47.384;19.218;2023-05-19T05:31:07;13.50;99.90
40758;DHT22;26462;47.384;19.218;2023-05-19T05:33:35;13.50;99.90
40758;DHT22;26462;47.384;19.218;2023-05-19T05:36:04;13.60;99.90
40758;DHT22;26462;47.384;19.218;2023-05-19T05:38:31;13.60;99.90
40758;DHT22;26462;47.384;19.218;2023-05-19T05:40:58;13.70;99.90
40758;DHT22;26462;47.384;19.218;2023-05-19T05:43:28;13.70;99.90
40758;DHT22;26462;47.384;19.218;2023-05-19T05:45:58;15.10;99.90
40758;DHT22;26462;47.384;19.218;2023-05-19T05:48:26;13.70;99.90
40758;DHT22;26462;47.384;19.218;2023-05-19T05:50:54;13.70;99.90
40758;DHT22;26462;47.384;19.218;2023-05-19T05:53:25;13.80;99.90
40758;DHT22;26462;47.384;19.218;2023-05-19T05:55:56;13.80;99.90
40758;DHT22;26462;47.384;19.218;2023-05-19T05:58:27;13.40;99.90
40758;DHT22;26462;47.384;19.218;2023-05-19T06:00:57;14.00;99.90
40758;DHT22;26462;47.384;19.218;2023-05-19T06:03:25;14.10;99.90
40758;DHT22;26462;47.384;19.218;2023-05-19T06:05:55;13.50;99.90
40758;DHT22;26462;47.384;19.218;2023-05-19T06:08:22;14.40;99.90
40758;DHT22;26462;47.384;19.218;2023-05-19T06:10:49;14.50;99.90
40758;DHT22;26462;47.384;19.218;2023-05-19T06:13:19;14.20;99.90
40758;DHT22;26462;47.384;19.218;2023-05-19T06:15:50;14.30;99.90
40758;DHT22;26462;47.384;19.218;2023-05-19T06:18:25;14.40;99.90
40758;DHT22;26462;47.384;19.218;2023-05-19T06:20:53;14.50;99.90
40758;DHT22;26462;47.384;19.218;2023-05-19T06:23:20;15.10;99.90
40758;DHT22;26462;47.384;19.218;2023-05-19T06:25:48;15.40;99.90
40758;DHT22;26462;47.384;19.218;2023-05-19T06:28:15;15.60;99.90
40758;DHT22;26462;47.384;19.218;2023-05-19T06:30:43;15.40;99.90
40758;DHT22;26462;47.384;19.218;2023-05-19T06:33:31;15.40;99.90
40758;DHT22;26462;47.384;19.218;2023-05-19T06:35:58;15.60;99.90
40758;DHT22;26462;47.384;19.218;2023-05-19T06:38:25;15.60;99.90
40758;DHT22;26462;47.384;19.218;2023-05-19T06:40:54;15.60;99.90
40758;DHT22;26462;47.384;19.218;2023-05-19T06:43:21;15.40;99.90
40758;DHT22;26462;47.384;19.218;2023-05-19T06:45:56;15.50;99.90
40758;DHT22;26462;47.384;19.218;2023-05-19T06:48:24;15.30;99.90
40758;DHT22;26462;47.384;19.218;2023-05-19T06:50:52;15.60;99.90
40758;DHT22;26462;47.384;19.218;2023-05-19T06:53:19;15.70;99.90
40758;DHT22;26462;47.384;19.218;2023-05-19T06:55:47;15.70;99.90
40758;DHT22;26462;47.384;19.218;2023-05-19T06:58:29;15.40;99.90
40758;DHT22;26462;47.384;19.218;2023-05-19T07:00:57;16.20;99.90
40758;DHT22;26462;47.384;19.218;2023-05-19T07:03:28;16.00;99.90
40758;DHT22;26462;47.384;19.218;2023-05-19T07:05:57;15.80;99.90
40758;DHT22;26462;47.384;19.218;2023-05-19T07:08:25;15.60;99.90
40758;DHT22;26462;47.384;19.218;2023-05-19T07:10:53;15.50;99.90
40758;DHT22;26462;47.384;19.218;2023-05-19T07:13:24;16.00;99.90
40758;DHT22;26462;47.384;19.218;2023-05-19T07:15:54;17.20;99.90
40758;DHT22;26462;47.384;19.218;2023-05-19T07:18:22;16.10;99.90
40758;DHT22;26462;47.384;19.218;2023-05-19T07:20:51;16.90;99.90
40758;DHT22;26462;47.384;19.218;2023-05-19T07:23:19;16.10;99.90
40758;DHT22;26462;47.384;19.218;2023-05-19T07:25:46;16.40;99.90
40758;DHT22;26462;47.384;19.218;2023-05-19T07:28:14;16.60;99.90
40758;DHT22;26462;47.384;19.218;2023-05-19T07:30:41;16.60;99.90
40758;DHT22;26462;47.384;19.218;2023-05-19T07:33:08;16.70;99.90
40758;DHT22;26462;47.384;19.218;2023-05-19T07:35:35;17.00;99.90
40758;DHT22;26462;47.384;19.218;2023-05-19T07:38:02;17.00;99.90
40758;DHT22;26462;47.384;19.218;2023-05-19T07:40:30;17.00;99.90
40758;DHT22;26462;47.384;19.218;2023-05-19T07:42:57;17.20;99.90
40758;DHT22;26462;47.384;19.218;2023-05-19T07:45:24;17.10;99.90
40758;DHT22;26462;47.384;19.218;2023-05-19T07:47:52;17.10;99.90
40758;DHT22;26462;47.384;19.218;2023-05-19T07:50:20;17.10;99.90
40758;DHT22;26462;47.384;19.218;2023-05-19T07:52:47;17.30;99.90
40758;DHT22;26462;47.384;19.218;2023-05-19T07:55:15;18.40;99.90
40758;DHT22;26462;47.384;19.218;2023-05-19T07:57:43;17.50;99.90
40758;DHT22;26462;47.384;19.218;2023-05-19T08:00:10;17.90;99.90
40758;DHT22;26462;47.384;19.218;2023-05-19T08:02:39;17.70;99.90
40758;DHT22;26462;47.384;19.218;2023-05-19T08:05:07;17.90;99.90
40758;DHT22;26462;47.384;19.218;2023-05-19T08:07:35;17.20;99.90
40758;DHT22;26462;47.384;19.218;2023-05-19T08:10:02;17.80;99.90
40758;DHT22;26462;47.384;19.218;2023-05-19T08:12:30;17.50;99.90
40758;DHT22;26462;47.384;19.218;2023-05-19T08:14:57;17.30;99.90
40758;DHT22;26462;47.384;19.218;2023-05-19T08:17:27;17.10;99.90
40758;DHT22;26462;47.384;19.218;2023-05-19T08:19:54;17.40;99.90
40758;DHT22;26462;47.384;19.218;2023-05-19T08:22:21;17.80;99.90
40758;DHT22;26462;47.384;19.218;2023-05-19T08:24:48;17.90;99.90
40758;DHT22;26462;47.384;19.218;2023-05-19T08:27:17;17.80;99.90
40758;DHT22;26462;47.384;19.218;2023-05-19T08:29:44;17.40;99.90
40758;DHT22;26462;47.384;19.218;2023-05-19T08:32:11;17.30;99.90
40758;DHT22;26462;47.384;19.218;2023-05-19T08:34:39;17.30;99.90
40758;DHT22;26462;47.384;19.218;2023-05-19T08:37:07;17.80;99.90
40758;DHT22;26462;47.384;19.218;2023-05-19T08:39:34;18.10;99.90
40758;DHT22;26462;47.384;19.218;2023-05-19T08:42:01;18.20;99.90
40758;DHT22;26462;47.384;19.218;2023-05-19T08:44:28;18.30;99.90
40758;DHT22;26462;47.384;19.218;2023-05-19T08:46:56;18.30;99.90
40758;DHT22;26462;47.384;19.218;2023-05-19T08:49:25;18.30;99.90
40758;DHT22;26462;47.384;19.218;2023-05-19T08:51:55;17.70;99.90
40758;DHT22;26462;47.384;19.218;2023-05-19T08:54:28;17.70;99.90
40758;DHT22;26462;47.384;19.218;2023-05-19T08:56:56;17.70;99.90
40758;DHT22;26462;47.384;19.218;2023-05-19T08:59:23;17.70;99.90
40758;DHT22;26462;47.384;19.218;2023-05-19T09:01:51;17.80;99.90
40758;DHT22;26462;47.384;19.218;2023-05-19T09:04:19;17.90;99.90
40758;DHT22;26462;47.384;19.218;2023-05-19T09:06:46;18.00;99.90
40758;DHT22;26462;47.384;19.218;2023-05-19T09:09:14;18.40;99.90
40758;DHT22;26462;47.384;19.218;2023-05-19T09:11:44;18.80;99.90
40758;DHT22;26462;47.384;19.218;2023-05-19T09:14:11;19.00;99.90
40758;DHT22;26462;47.384;19.218;2023-05-19T09:16:38;18.80;99.90
40758;DHT22;26462;47.384;19.218;2023-05-19T09:19:11;19.30;99.90
40758;DHT22;26462;47.384;19.218;2023-05-19T09:21:39;18.10;99.90
40758;DHT22;26462;47.384;19.218;2023-05-19T09:24:06;17.90;99.90
40758;DHT22;26462;47.384;19.218;2023-05-19T09:26:34;18.20;99.90
40758;DHT22;26462;47.384;19.218;2023-05-19T09:29:09;17.30;99.90
40758;DHT22;26462;47.384;19.218;2023-05-19T09:31:36;18.20;99.90
40758;DHT22;26462;47.384;19.218;2023-05-19T09:34:03;17.90;99.90
40758;DHT22;26462;47.384;19.218;2023-05-19T09:36:31;17.90;99.90
40758;DHT22;26462;47.384;19.218;2023-05-19T09:38:58;18.00;99.90
40758;DHT22;26462;47.384;19.218;2023-05-19T09:41:25;18.00;99.90
40758;DHT22;26462;47.384;19.218;2023-05-19T09:43:53;18.10;99.90
40758;DHT22;26462;47.384;19.218;2023-05-19T09:46:23;18.10;99.90
40758;DHT22;26462;47.384;19.218;2023-05-19T09:48:58;18.40;99.90
40758;DHT22;26462;47.384;19.218;2023-05-19T09:51:26;18.80;99.40
40758;DHT22;26462;47.384;19.218;2023-05-19T09:53:53;19.50;98.00
40758;DHT22;26462;47.384;19.218;2023-05-19T09:56:20;18.70;97.00
40758;DHT22;26462;47.384;19.218;2023-05-19T09:58:49;19.00;97.90
40758;DHT22;26462;47.384;19.218;2023-05-19T10:01:18;18.60;99.00
40758;DHT22;26462;47.384;19.218;2023-05-19T10:03:45;18.70;99.00
40758;DHT22;26462;47.384;19.218;2023-05-19T10:06:12;18.70;99.90
40758;DHT22;26462;47.384;19.218;2023-05-19T10:08:41;18.50;99.20
40758;DHT22;26462;47.384;19.218;2023-05-19T10:11:08;18.50;99.30
40758;DHT22;26462;47.384;19.218;2023-05-19T10:13:37;18.50;99.90
40758;DHT22;26462;47.384;19.218;2023-05-19T10:16:05;19.10;99.60
40758;DHT22;26462;47.384;19.218;2023-05-19T10:18:32;18.50;99.90
40758;DHT22;26462;47.384;19.218;2023-05-19T10:21:01;19.00;99.00
40758;DHT22;26462;47.384;19.218;2023-05-19T10:23:29;19.10;98.60
40758;DHT22;26462;47.384;19.218;2023-05-19T10:25:57;19.20;96.80
40758;DHT22;26462;47.384;19.218;2023-05-19T10:28:25;19.20;98.00
40758;DHT22;26462;47.384;19.218;2023-05-19T10:30:56;19.20;95.70
40758;DHT22;26462;47.384;19.218;2023-05-19T10:33:30;19.50;96.70
40758;DHT22;26462;47.384;19.218;2023-05-19T10:39:21;19.80;97.00
40758;DHT22;26462;47.384;19.218;2023-05-19T10:41:30;19.80;96.80
40758;DHT22;26462;47.384;19.218;2023-05-19T10:46:44;19.50;94.10
40758;DHT22;26462;47.384;19.218;2023-05-19T10:49:19;19.40;95.40
40758;DHT22;26462;47.384;19.218;2023-05-19T10:51:47;19.30;95.50
40758;DHT22;26462;47.384;19.218;2023-05-19T10:54:14;19.20;95.70
40758;DHT22;26462;47.384;19.218;2023-05-19T10:56:43;19.50;95.30
40758;DHT22;26462;47.384;19.218;2023-05-19T10:59:34;19.70;95.80
40758;DHT22;26462;47.384;19.218;2023-05-19T11:02:03;19.60;95.20
40758;DHT22;26462;47.384;19.218;2023-05-19T11:04:44;19.40;95.10
40758;DHT22;26462;47.384;19.218;2023-05-19T11:07:17;19.20;96.20
40758;DHT22;26462;47.384;19.218;2023-05-19T11:09:50;19.50;96.40
40758;DHT22;26462;47.384;19.218;2023-05-19T11:12:21;19.50;94.80
40758;DHT22;26462;47.384;19.218;2023-05-19T11:14:51;19.80;94.30
40758;DHT22;26462;47.384;19.218;2023-05-19T11:17:18;19.70;94.10
40758;DHT22;26462;47.384;19.218;2023-05-19T11:19:53;19.80;95.40
40758;DHT22;26462;47.384;19.218;2023-05-19T11:22:22;19.80;95.00
40758;DHT22;26462;47.384;19.218;2023-05-19T11:24:50;20.00;95.00
40758;DHT22;26462;47.384;19.218;2023-05-19T11:29:48;20.10;93.10
40758;DHT22;26462;47.384;19.218;2023-05-19T11:32:16;20.20;93.50
40758;DHT22;26462;47.384;19.218;2023-05-19T11:34:43;20.30;94.80
40758;DHT22;26462;47.384;19.218;2023-05-19T11:37:11;20.50;94.10
40758;DHT22;26462;47.384;19.218;2023-05-19T11:39:39;20.40;93.70
40758;DHT22;26462;47.384;19.218;2023-05-19T11:42:09;20.50;95.30
40758;DHT22;26462;47.384;19.218;2023-05-19T11:44:37;20.50;94.00
40758;DHT22;26462;47.384;19.218;2023-05-19T11:47:06;20.50;93.20
40758;DHT22;26462;47.384;19.218;2023-05-19T11:49:34;20.50;93.00
40758;DHT22;26462;47.384;19.218;2023-05-19T11:52:02;20.40;93.60
40758;DHT22;26462;47.384;19.218;2023-05-19T11:54:30;20.60;94.00
40758;DHT22;26462;47.384;19.218;2023-05-19T11:56:59;20.50;93.50
40758;DHT22;26462;47.384;19.218;2023-05-19T11:59:29;20.70;94.00
40758;DHT22;26462;47.384;19.218;2023-05-19T12:02:00;20.60;94.20
40758;DHT22;26462;47.384;19.218;2023-05-19T12:04:28;20.70;94.10
40758;DHT22;26462;47.384;19.218;2023-05-19T12:06:55;20.70;92.80
40758;DHT22;26462;47.384;19.218;2023-05-19T12:09:23;20.50;92.80
40758;DHT22;26462;47.384;19.218;2023-05-19T12:11:50;20.70;91.60
40758;DHT22;26462;47.384;19.218;2023-05-19T12:14:18;20.80;93.40
40758;DHT22;26462;47.384;19.218;2023-05-19T12:16:46;20.90;93.20
40758;DHT22;26462;47.384;19.218;2023-05-19T12:19:14;20.90;93.00
40758;DHT22;26462;47.384;19.218;2023-05-19T12:21:41;20.90;91.50
40758;DHT22;26462;47.384;19.218;2023-05-19T12:24:09;20.90;91.60
40758;DHT22;26462;47.384;19.218;2023-05-19T12:26:37;21.10;90.20
40758;DHT22;26462;47.384;19.218;2023-05-19T12:29:04;21.00;89.20
40758;DHT22;26462;47.384;19.218;2023-05-19T12:31:33;20.90;88.30
40758;DHT22;26462;47.384;19.218;2023-05-19T12:34:01;21.00;90.90
40758;DHT22;26462;47.384;19.218;2023-05-19T12:36:28;21.40;90.90
40758;DHT22;26462;47.384;19.218;2023-05-19T12:38:57;21.00;89.90
40758;DHT22;26462;47.384;19.218;2023-05-19T12:41:25;21.10;91.30
40758;DHT22;26462;47.384;19.218;2023-05-19T12:43:53;21.20;90.90
40758;DHT22;26462;47.384;19.218;2023-05-19T12:46:21;21.10;90.60
40758;DHT22;26462;47.384;19.218;2023-05-19T12:48:49;21.10;90.70
40758;DHT22;26462;47.384;19.218;2023-05-19T12:51:17;21.20;91.50
40758;DHT22;26462;47.384;19.218;2023-05-19T12:53:45;21.30;90.90
40758;DHT22;26462;47.384;19.218;2023-05-19T12:56:13;21.30;90.50
40758;DHT22;26462;47.384;19.218;2023-05-19T12:58:41;22.10;90.00
40758;DHT22;26462;47.384;19.218;2023-05-19T13:01:15;21.40;89.60
40758;DHT22;26462;47.384;19.218;2023-05-19T13:03:43;21.30;89.30
40758;DHT22;26462;47.384;19.218;2023-05-19T13:06:12;21.40;88.80
40758;DHT22;26462;47.384;19.218;2023-05-19T13:08:39;21.30;89.00
40758;DHT22;26462;47.384;19.218;2023-05-19T13:11:07;21.40;90.50
40758;DHT22;26462;47.384;19.218;2023-05-19T13:13:34;21.40;90.40
40758;DHT22;26462;47.384;19.218;2023-05-19T13:16:01;21.40;91.00
40758;DHT22;26462;47.384;19.218;2023-05-19T13:18:28;21.90;90.90
40758;DHT22;26462;47.384;19.218;2023-05-19T13:20:58;20.60;90.10
40758;DHT22;26462;47.384;19.218;2023-05-19T13:23:25;21.50;89.40
40758;DHT22;26462;47.384;19.218;2023-05-19T13:25:52;21.60;87.00
40758;DHT22;26462;47.384;19.218;2023-05-19T13:28:20;21.50;88.40
40758;DHT22;26462;47.384;19.218;2023-05-19T13:30:47;21.70;87.00
40758;DHT22;26462;47.384;19.218;2023-05-19T13:33:15;21.50;86.10
40758;DHT22;26462;47.384;19.218;2023-05-19T13:35:42;21.40;86.20
40758;DHT22;26462;47.384;19.218;2023-05-19T13:38:10;21.50;85.30
40758;DHT22;26462;47.384;19.218;2023-05-19T13:40:38;21.40;87.20
40758;DHT22;26462;47.384;19.218;2023-05-19T13:43:05;21.60;87.60
40758;DHT22;26462;47.384;19.218;2023-05-19T13:45:33;21.60;86.30
40758;DHT22;26462;47.384;19.218;2023-05-19T13:48:00;21.50;85.40
40758;DHT22;26462;47.384;19.218;2023-05-19T13:50:28;21.60;82.40
40758;DHT22;26462;47.384;19.218;2023-05-19T13:52:55;21.50;82.70
40758;DHT22;26462;47.384;19.218;2023-05-19T13:55:23;21.50;82.30
40758;DHT22;26462;47.384;19.218;2023-05-19T13:57:52;20.70;83.60
40758;DHT22;26462;47.384;19.218;2023-05-19T14:00:19;21.50;83.80
40758;DHT22;26462;47.384;19.218;2023-05-19T14:02:47;21.70;83.90
40758;DHT22;26462;47.384;19.218;2023-05-19T14:05:14;21.60;85.10
40758;DHT22;26462;47.384;19.218;2023-05-19T14:07:41;21.70;82.70
40758;DHT22;26462;47.384;19.218;2023-05-19T14:10:10;21.70;81.80
40758;DHT22;26462;47.384;19.218;2023-05-19T14:12:38;21.30;80.60
40758;DHT22;26462;47.384;19.218;2023-05-19T14:15:25;21.50;81.10
40758;DHT22;26462;47.384;19.218;2023-05-19T14:17:52;21.40;83.40
40758;DHT22;26462;47.384;19.218;2023-05-19T14:20:20;21.40;84.40
40758;DHT22;26462;47.384;19.218;2023-05-19T14:22:47;21.00;81.60
40758;DHT22;26462;47.384;19.218;2023-05-19T14:25:15;21.50;81.20
40758;DHT22;26462;47.384;19.218;2023-05-19T14:27:45;21.60;84.40
40758;DHT22;26462;47.384;19.218;2023-05-19T14:30:12;21.50;82.90
40758;DHT22;26462;47.384;19.218;2023-05-19T14:32:40;21.70;84.60
40758;DHT22;26462;47.384;19.218;2023-05-19T14:35:07;21.30;85.60
40758;DHT22;26462;47.384;19.218;2023-05-19T14:37:34;21.30;89.30
40758;DHT22;26462;47.384;19.218;2023-05-19T14:40:02;21.40;86.60
40758;DHT22;26462;47.384;19.218;2023-05-19T14:42:30;21.40;87.10
40758;DHT22;26462;47.384;19.218;2023-05-19T14:44:58;21.70;85.80
40758;DHT22;26462;47.384;19.218;2023-05-19T14:47:25;21.70;83.70
40758;DHT22;26462;47.384;19.218;2023-05-19T14:49:53;22.30;85.80
40758;DHT22;26462;47.384;19.218;2023-05-19T14:52:20;21.90;85.10
40758;DHT22;26462;47.384;19.218;2023-05-19T14:54:48;21.70;86.40
40758;DHT22;26462;47.384;19.218;2023-05-19T14:57:15;21.60;84.80
40758;DHT22;26462;47.384;19.218;2023-05-19T14:59:43;21.60;83.00
40758;DHT22;26462;47.384;19.218;2023-05-19T15:02:10;21.50;82.80
40758;DHT22;26462;47.384;19.218;2023-05-19T15:04:38;21.40;81.60
40758;DHT22;26462;47.384;19.218;2023-05-19T15:07:06;21.40;81.80
40758;DHT22;26462;47.384;19.218;2023-05-19T15:09:36;21.30;84.50
40758;DHT22;26462;47.384;19.218;2023-05-19T15:12:04;21.30;85.70
40758;DHT22;26462;47.384;19.218;2023-05-19T15:14:31;21.30;85.60
40758;DHT22;26462;47.384;19.218;2023-05-19T15:16:59;21.40;85.90
40758;DHT22;26462;47.384;19.218;2023-05-19T15:19:26;21.40;87.10
40758;DHT22;26462;47.384;19.218;2023-05-19T15:21:53;21.30;86.60
40758;DHT22;26462;47.384;19.218;2023-05-19T15:24:21;21.70;87.60
40758;DHT22;26462;47.384;19.218;2023-05-19T15:26:48;21.30;89.50
40758;DHT22;26462;47.384;19.218;2023-05-19T15:29:16;21.30;88.60
40758;DHT22;26462;47.384;19.218;2023-05-19T15:31:43;21.30;90.30
40758;DHT22;26462;47.384;19.218;2023-05-19T15:34:11;21.20;90.00
40758;DHT22;26462;47.384;19.218;2023-05-19T15:36:38;21.20;90.00
40758;DHT22;26462;47.384;19.218;2023-05-19T15:39:06;21.20;89.30
40758;DHT22;26462;47.384;19.218;2023-05-19T15:41:33;21.10;89.00